Time;durP1;ratioP1;P1;durP2;ratioP2;P2;SDS_P1;SDS_P2;PMS_P1;PMS_P2;Temp;Humidity;BMP_temperature;BMP_pressure;BME280_temperature;BME280_humidity;BME280_pressure;Samples;Min_cycle;Max_cycle;Signal;HPM_P1;HPM_P2
2022/02/26 00:02:01;;;;;;;0.40;0.30;;;2.80;99.90;;;;;;4989219;28;20841;-73
2022/02/26 00:04:26;;;;;;;0.40;0.20;;;2.90;99.90;;;;;;4973086;28;20430;-72
2022/02/26 00:06:52;;;;;;;0.40;0.20;;;2.80;99.90;;;;;;4990594;28;20444;-73
2022/02/26 00:09:18;;;;;;;0.40;0.20;;;2.70;99.90;;;;;;4988732;28;20398;-73
2022/02/26 00:11:43;;;;;;;0.40;0.40;;;2.70;99.90;;;;;;4988846;28;20413;-73
2022/02/26 00:14:09;;;;;;;0.40;0.20;;;2.70;99.90;;;;;;4970535;28;20395;-73
2022/02/26 00:16:36;;;;;;;0.40;0.40;;;2.80;99.90;;;;;;4971902;28;20395;-74
2022/02/26 00:19:02;;;;;;;0.40;0.30;;;2.90;99.90;;;;;;4990557;28;21275;-74
2022/02/26 00:21:28;;;;;;;0.40;0.20;;;2.70;99.90;;;;;;4990663;28;20398;-73
2022/02/26 00:23:54;;;;;;;0.70;0.55;;;2.70;99.90;;;;;;4972632;28;20441;-74
2022/02/26 00:26:22;;;;;;;0.40;0.20;;;2.70;99.90;;;;;;4989219;28;20426;-74
2022/02/26 00:28:48;;;;;;;0.40;0.30;;;2.70;99.90;;;;;;4991799;28;20410;-74
2022/02/26 00:31:16;;;;;;;0.40;0.40;;;2.70;99.90;;;;;;4994372;28;20449;-73
2022/02/26 00:33:42;;;;;;;1.10;1.00;;;2.70;99.90;;;;;;4975875;28;20478;-73
2022/02/26 00:36:08;;;;;;;0.40;0.30;;;2.80;99.90;;;;;;4993277;28;20867;-73
2022/02/26 00:38:33;;;;;;;0.50;0.50;;;2.90;99.90;;;;;;4975304;28;20949;-73
2022/02/26 00:40:59;;;;;;;0.40;0.20;;;2.90;99.90;;;;;;4993380;28;20398;-73
2022/02/26 00:43:25;;;;;;;0.40;0.20;;;2.80;99.90;;;;;;4993373;28;20383;-73
2022/02/26 00:45:51;;;;;;;0.40;0.30;;;2.90;99.90;;;;;;4975177;28;20755;-73
2022/02/26 00:48:16;;;;;;;0.40;0.20;;;2.80;99.90;;;;;;4975993;28;20395;-74
2022/02/26 00:50:42;;;;;;;0.50;0.50;;;2.90;99.90;;;;;;4992399;28;20398;-74
2022/02/26 00:53:08;;;;;;;0.40;0.30;;;2.80;99.90;;;;;;4993336;28;20578;-73
2022/02/26 00:55:34;;;;;;;0.40;0.20;;;2.90;99.90;;;;;;4993384;28;20836;-73
2022/02/26 00:58:02;;;;;;;0.40;0.20;;;3.00;99.90;;;;;;4992258;28;20461;-74
2022/02/26 01:00:28;;;;;;;0.40;0.30;;;3.00;99.90;;;;;;4968747;28;20403;-72
2022/02/26 01:02:53;;;;;;;0.40;0.20;;;2.80;99.90;;;;;;4972474;28;20748;-73
2022/02/26 01:05:19;;;;;;;0.40;0.20;;;2.90;99.90;;;;;;4973607;28;20861;-72
2022/02/26 01:07:47;;;;;;;0.40;0.20;;;2.90;99.90;;;;;;4940093;28;20400;-72
2022/02/26 01:10:13;;;;;;;0.40;0.38;;;3.00;99.90;;;;;;4972596;28;20392;-73
2022/02/26 01:12:38;;;;;;;0.40;0.20;;;2.90;99.90;;;;;;4973523;28;20384;-73
2022/02/26 01:15:05;;;;;;;0.40;0.20;;;3.00;99.90;;;;;;4972416;28;20431;-73
2022/02/26 01:17:31;;;;;;;0.40;0.40;;;3.00;99.90;;;;;;4973005;28;20396;-73
2022/02/26 01:19:56;;;;;;;0.70;0.70;;;3.00;99.90;;;;;;4972995;28;20385;-73
2022/02/26 01:22:22;;;;;;;0.40;0.20;;;2.80;99.90;;;;;;4972516;28;20380;-73
2022/02/26 01:24:48;;;;;;;0.40;0.23;;;2.80;99.90;;;;;;4972581;28;20545;-73
2022/02/26 01:27:14;;;;;;;0.40;0.30;;;2.80;99.90;;;;;;4972975;28;20443;-73
2022/02/26 01:29:39;;;;;;;0.40;0.20;;;2.70;99.90;;;;;;4972321;28;20411;-73
2022/02/26 01:32:06;;;;;;;0.40;0.30;;;2.70;99.90;;;;;;4973061;28;20494;-73
2022/02/26 01:34:32;;;;;;;0.40;0.20;;;2.70;99.90;;;;;;4971794;28;20396;-73
2022/02/26 01:36:58;;;;;;;0.40;0.20;;;2.80;99.90;;;;;;4972911;28;20395;-73
2022/02/26 01:39:24;;;;;;;0.40;0.20;;;2.70;99.90;;;;;;4972434;28;20393;-73
2022/02/26 01:41:52;;;;;;;0.40;0.20;;;2.70;99.90;;;;;;4972234;28;21019;-73
2022/02/26 01:44:18;;;;;;;0.40;0.20;;;2.70;99.90;;;;;;4972677;28;20490;-73
2022/02/26 01:46:44;;;;;;;0.40;0.20;;;2.70;99.90;;;;;;4971782;28;20479;-73
2022/02/26 01:49:10;;;;;;;0.40;0.20;;;2.70;99.90;;;;;;4972712;28;20480;-73
2022/02/26 01:51:36;;;;;;;0.40;0.20;;;2.60;99.90;;;;;;4973007;28;20404;-73
2022/02/26 01:54:03;;;;;;;0.40;0.20;;;2.60;99.90;;;;;;4954456;28;20448;-73
2022/02/26 01:56:29;;;;;;;0.40;0.20;;;2.70;99.90;;;;;;4955180;28;20415;-73
2022/02/26 01:58:55;;;;;;;0.40;0.20;;;2.70;99.90;;;;;;4971630;28;20384;-73
2022/02/26 02:01:21;;;;;;;0.40;0.20;;;2.70;99.90;;;;;;4986460;28;20433;-73
2022/02/26 02:03:46;;;;;;;0.40;0.20;;;2.80;99.90;;;;;;5007200;28;20441;-73
2022/02/26 02:06:13;;;;;;;0.40;0.20;;;2.70;99.90;;;;;;5006229;28;20394;-74
2022/02/26 02:08:41;;;;;;;0.40;0.20;;;2.60;99.90;;;;;;4974355;28;20395;-73
2022/02/26 02:11:08;;;;;;;0.40;0.40;;;2.60;99.90;;;;;;4990682;28;20425;-74
2022/02/26 02:13:34;;;;;;;0.40;0.20;;;2.60;99.90;;;;;;4974251;28;20391;-74
2022/02/26 02:16:00;;;;;;;0.50;0.50;;;2.60;99.90;;;;;;4991644;28;20400;-74
2022/02/26 02:18:26;;;;;;;0.40;0.30;;;2.60;99.90;;;;;;4973646;28;20402;-74
2022/02/26 02:20:52;;;;;;;0.40;0.20;;;2.70;99.90;;;;;;4991339;28;20410;-74
2022/02/26 02:23:18;;;;;;;0.40;0.20;;;2.70;99.90;;;;;;4973529;28;20394;-74
2022/02/26 02:25:44;;;;;;;0.40;0.20;;;2.70;99.90;;;;;;4991582;28;20917;-73
2022/02/26 02:28:10;;;;;;;0.40;0.20;;;2.70;99.90;;;;;;4991956;28;20798;-73
2022/02/26 02:30:37;;;;;;;0.40;0.20;;;2.60;99.90;;;;;;4973279;28;20456;-73
2022/02/26 02:33:05;;;;;;;0.40;0.20;;;2.50;99.90;;;;;;4991423;28;20402;-73
2022/02/26 02:35:36;;;;;;;0.40;0.40;;;2.50;99.90;;;;;;4973575;28;20398;-73
2022/02/26 02:38:08;;;;;;;0.40;0.20;;;2.40;99.90;;;;;;4973882;28;20881;-73
2022/02/26 02:40:34;;;;;;;0.40;0.20;;;2.30;99.90;;;;;;4989968;28;20863;-74
2022/02/26 02:43:00;;;;;;;0.40;0.20;;;2.30;99.90;;;;;;4991467;28;20386;-73
2022/02/26 02:45:26;;;;;;;0.40;0.20;;;2.20;99.90;;;;;;4991292;28;20757;-73
2022/02/26 02:47:52;;;;;;;0.40;0.20;;;2.20;99.90;;;;;;4990837;28;20374;-73
2022/02/26 02:50:18;;;;;;;0.40;0.20;;;2.10;99.90;;;;;;4991113;28;20398;-73
2022/02/26 02:52:45;;;;;;;0.40;0.20;;;2.00;99.90;;;;;;4990637;28;20509;-73
2022/02/26 02:55:14;;;;;;;0.40;0.20;;;1.90;99.90;;;;;;4991178;28;20453;-73
2022/02/26 02:57:43;;;;;;;0.50;0.40;;;2.00;99.90;;;;;;4990890;28;20386;-73
2022/02/26 03:00:11;;;;;;;0.40;0.20;;;2.00;99.90;;;;;;4991262;28;20417;-73
2022/02/26 03:02:37;;;;;;;0.40;0.20;;;2.00;99.90;;;;;;4990170;28;20422;-73
2022/02/26 03:05:03;;;;;;;0.60;0.60;;;2.00;99.90;;;;;;4990546;28;20422;-73
2022/02/26 03:07:29;;;;;;;0.40;0.20;;;2.00;99.90;;;;;;4991334;28;20414;-73
2022/02/26 03:09:54;;;;;;;0.50;0.40;;;2.00;99.90;;;;;;4990078;28;20470;-73
2022/02/26 03:12:20;;;;;;;0.40;0.20;;;2.00;99.90;;;;;;4990824;28;20885;-73
2022/02/26 03:14:46;;;;;;;0.40;0.20;;;2.00;99.90;;;;;;4973690;28;20512;-72
2022/02/26 03:17:11;;;;;;;0.40;0.20;;;2.00;99.90;;;;;;4990650;28;20390;-73
2022/02/26 03:19:37;;;;;;;0.40;0.20;;;1.90;99.90;;;;;;4990987;28;20417;-73
2022/02/26 03:22:04;;;;;;;0.40;0.20;;;1.90;99.90;;;;;;4990594;28;20449;-73
2022/02/26 03:24:30;;;;;;;0.40;0.20;;;1.90;99.90;;;;;;4990554;28;20446;-73
2022/02/26 03:26:57;;;;;;;0.40;0.20;;;1.90;99.90;;;;;;4972922;28;20434;-73
2022/02/26 03:29:24;;;;;;;0.40;0.20;;;2.00;99.90;;;;;;4990067;28;20382;-73
2022/02/26 03:31:50;;;;;;;0.40;0.20;;;1.90;99.90;;;;;;4990752;28;20418;-72
2022/02/26 03:34:16;;;;;;;0.40;0.20;;;1.90;99.90;;;;;;4990158;28;20394;-73
2022/02/26 03:36:42;;;;;;;0.40;0.30;;;2.00;99.90;;;;;;4973475;28;20795;-72
2022/02/26 03:39:07;;;;;;;0.40;0.20;;;1.90;99.90;;;;;;4991113;28;20378;-72
2022/02/26 03:41:33;;;;;;;0.40;0.20;;;1.90;99.90;;;;;;4990295;28;20390;-73
2022/02/26 03:43:59;;;;;;;0.40;0.30;;;2.00;99.90;;;;;;4990849;28;20904;-72
2022/02/26 03:46:24;;;;;;;0.40;0.20;;;2.10;99.90;;;;;;4990039;28;20855;-73
2022/02/26 03:48:51;;;;;;;0.40;0.20;;;2.20;99.90;;;;;;4990885;28;20383;-73
2022/02/26 03:51:16;;;;;;;0.40;0.20;;;2.30;99.90;;;;;;4991621;28;20437;-71
2022/02/26 03:53:42;;;;;;;0.40;0.28;;;2.20;99.90;;;;;;4993079;28;20426;-73
2022/02/26 03:56:08;;;;;;;0.50;0.50;;;2.20;99.90;;;;;;4976740;28;20942;-73
2022/02/26 03:58:34;;;;;;;0.40;0.20;;;2.30;99.90;;;;;;4993855;28;20440;-73
2022/02/26 04:01:00;;;;;;;0.40;0.30;;;2.30;99.90;;;;;;4993596;28;20422;-73
2022/02/26 04:03:25;;;;;;;0.60;0.60;;;2.40;99.90;;;;;;4976696;28;20493;-73
2022/02/26 04:05:51;;;;;;;0.40;0.20;;;2.40;99.90;;;;;;4992694;28;20477;-73
2022/02/26 04:08:17;;;;;;;0.40;0.20;;;2.40;99.90;;;;;;4994202;28;20389;-73
2022/02/26 04:10:43;;;;;;;0.40;0.20;;;2.60;99.90;;;;;;4994080;28;20747;-73
2022/02/26 04:13:09;;;;;;;0.40;0.20;;;2.40;99.90;;;;;;4993669;28;20410;-73
2022/02/26 04:15:34;;;;;;;0.40;0.20;;;2.50;99.90;;;;;;4993650;28;20401;-74
2022/02/26 04:18:00;;;;;;;0.40;0.20;;;2.50;99.90;;;;;;4975491;28;20470;-73
2022/02/26 04:20:26;;;;;;;0.40;0.20;;;2.40;99.90;;;;;;4993469;28;20437;-73
2022/02/26 04:22:51;;;;;;;0.40;0.20;;;2.60;99.90;;;;;;4993661;28;20426;-74
2022/02/26 04:25:17;;;;;;;0.40;0.20;;;2.50;99.90;;;;;;4992630;28;20974;-73
2022/02/26 04:27:43;;;;;;;0.60;0.50;;;2.40;99.90;;;;;;4993728;28;20398;-73
2022/02/26 04:30:09;;;;;;;0.40;0.22;;;2.40;99.90;;;;;;4992630;28;20473;-74
2022/02/26 04:32:36;;;;;;;0.80;0.70;;;2.30;99.90;;;;;;4993542;28;20383;-73
2022/02/26 04:35:03;;;;;;;0.40;0.20;;;2.30;99.90;;;;;;4993666;28;20387;-73
2022/02/26 04:37:29;;;;;;;0.40;0.30;;;2.20;99.90;;;;;;4993237;28;20387;-73
2022/02/26 04:39:55;;;;;;;0.60;0.60;;;2.10;99.90;;;;;;4993592;28;20468;-73
2022/02/26 04:42:20;;;;;;;0.40;0.20;;;2.00;99.90;;;;;;4993246;28;20398;-74
2022/02/26 04:44:46;;;;;;;0.40;0.20;;;2.00;99.90;;;;;;4994035;28;20411;-73
2022/02/26 04:47:12;;;;;;;0.40;0.20;;;2.00;99.90;;;;;;4993752;28;20413;-73
2022/02/26 04:49:40;;;;;;;0.40;0.30;;;2.00;99.90;;;;;;4992445;28;20382;-73
2022/02/26 04:52:06;;;;;;;0.40;0.20;;;2.00;99.90;;;;;;4993072;28;20399;-73
2022/02/26 04:54:33;;;;;;;0.40;0.20;;;1.90;99.90;;;;;;4992646;28;20387;-74
2022/02/26 04:56:58;;;;;;;0.40;0.20;;;2.10;99.90;;;;;;4993059;28;20417;-73
2022/02/26 04:59:24;;;;;;;0.40;0.20;;;2.00;99.90;;;;;;4993087;28;20379;-73
2022/02/26 05:01:50;;;;;;;0.40;0.20;;;1.90;99.90;;;;;;4974477;28;20445;-73
2022/02/26 05:04:15;;;;;;;0.40;0.20;;;1.80;99.90;;;;;;4993157;28;20470;-73
2022/02/26 05:06:41;;;;;;;0.40;0.20;;;1.90;99.90;;;;;;4991919;28;20391;-74
2022/02/26 05:09:07;;;;;;;0.70;0.60;;;1.90;99.90;;;;;;4993163;28;20402;-73
2022/02/26 05:11:33;;;;;;;0.50;0.50;;;1.90;99.90;;;;;;4992892;28;20406;-73
2022/02/26 05:13:59;;;;;;;0.40;0.20;;;2.00;99.90;;;;;;4974722;28;20905;-73
2022/02/26 05:16:25;;;;;;;0.40;0.20;;;1.90;99.90;;;;;;4992685;28;20383;-73
2022/02/26 05:18:50;;;;;;;0.40;0.20;;;2.00;99.90;;;;;;4975039;28;20383;-74
2022/02/26 05:21:16;;;;;;;0.40;0.20;;;2.00;99.90;;;;;;4992864;28;20868;-73
2022/02/26 05:23:42;;;;;;;0.40;0.20;;;1.90;99.90;;;;;;4992585;28;20390;-73
2022/02/26 05:26:14;;;;;;;0.40;0.20;;;1.90;99.90;;;;;;4991960;28;20404;-73
2022/02/26 05:28:40;;;;;;;0.40;0.20;;;1.80;99.90;;;;;;4992754;28;20448;-74
2022/02/26 05:31:06;;;;;;;0.40;0.20;;;1.80;99.90;;;;;;4991663;28;20387;-74
2022/02/26 05:33:34;;;;;;;0.40;0.20;;;1.70;99.90;;;;;;4992112;28;20713;-74
2022/02/26 05:36:00;;;;;;;0.40;0.20;;;1.60;99.90;;;;;;4975070;28;20417;-73
2022/02/26 05:38:26;;;;;;;0.40;0.20;;;1.60;99.90;;;;;;4991784;28;20390;-73
2022/02/26 05:40:52;;;;;;;0.40;0.30;;;1.80;99.90;;;;;;4992242;28;20383;-73
2022/02/26 05:43:17;;;;;;;0.40;0.20;;;1.70;99.90;;;;;;4991660;28;20378;-73
2022/02/26 05:45:43;;;;;;;0.40;0.20;;;1.70;99.90;;;;;;4992343;28;20413;-73
2022/02/26 05:48:09;;;;;;;0.40;0.20;;;1.80;99.90;;;;;;4992274;28;20772;-73
2022/02/26 05:50:35;;;;;;;0.40;0.30;;;1.90;99.90;;;;;;4991283;28;21036;-73
2022/02/26 05:53:01;;;;;;;0.40;0.20;;;1.70;99.90;;;;;;4992418;28;20405;-73
2022/02/26 05:55:26;;;;;;;0.40;0.20;;;1.80;99.90;;;;;;4991594;28;20867;-73
2022/02/26 05:57:52;;;;;;;0.40;0.20;;;1.80;99.90;;;;;;4992166;28;20461;-73
2022/02/26 06:00:18;;;;;;;0.40;0.20;;;1.70;99.90;;;;;;4991668;28;20394;-73
2022/02/26 06:02:44;;;;;;;0.40;0.30;;;1.70;99.90;;;;;;4991098;28;20732;-73
2022/02/26 06:05:09;;;;;;;0.40;0.20;;;1.70;99.90;;;;;;4992120;28;20507;-73
2022/02/26 06:07:35;;;;;;;0.40;0.20;;;1.70;99.90;;;;;;4990924;28;20485;-74
2022/02/26 06:10:02;;;;;;;0.40;0.20;;;1.70;99.90;;;;;;4991769;28;20375;-73
2022/02/26 06:12:29;;;;;;;0.40;0.20;;;1.60;99.90;;;;;;4991927;28;20462;-73
2022/02/26 06:14:55;;;;;;;0.40;0.20;;;1.50;99.90;;;;;;4990435;28;20401;-73
2022/02/26 06:17:21;;;;;;;0.40;0.20;;;1.50;99.90;;;;;;4991501;28;20390;-74
2022/02/26 06:19:47;;;;;;;0.40;0.20;;;1.70;99.90;;;;;;4990809;28;20389;-73
2022/02/26 06:22:13;;;;;;;0.40;0.20;;;1.70;99.90;;;;;;4991803;28;20433;-73
2022/02/26 06:24:39;;;;;;;0.40;0.20;;;1.80;99.90;;;;;;4991515;28;20425;-73
2022/02/26 06:27:04;;;;;;;0.40;0.20;;;1.80;99.90;;;;;;4991105;28;20596;-73
2022/02/26 06:29:30;;;;;;;0.40;0.30;;;1.70;99.90;;;;;;4991991;28;20477;-72
2022/02/26 06:31:56;;;;;;;0.40;0.20;;;1.80;99.90;;;;;;4990865;28;20474;-73
2022/02/26 06:34:21;;;;;;;0.50;0.50;;;1.90;99.90;;;;;;4991608;28;20391;-72
2022/02/26 06:36:47;;;;;;;0.40;0.20;;;1.70;99.90;;;;;;4991593;28;20405;-73
2022/02/26 06:39:14;;;;;;;0.50;0.50;;;1.60;99.90;;;;;;4990336;28;20689;-73
2022/02/26 06:41:41;;;;;;;0.40;0.20;;;1.70;99.90;;;;;;4991194;28;20885;-73
2022/02/26 06:44:07;;;;;;;0.40;0.20;;;1.50;99.90;;;;;;4990718;28;20473;-73
2022/02/26 06:46:37;;;;;;;0.40;0.20;;;1.60;99.90;;;;;;4990879;28;20470;-73
2022/02/26 06:49:04;;;;;;;0.40;0.20;;;1.60;99.90;;;;;;4991384;28;20903;-73
2022/02/26 06:51:32;;;;;;;0.50;0.50;;;1.50;99.90;;;;;;4991177;28;20464;-72
2022/02/26 06:53:58;;;;;;;0.40;0.20;;;1.50;99.90;;;;;;4991440;28;20386;-72
2022/02/26 06:56:24;;;;;;;0.40;0.20;;;1.50;99.90;;;;;;4973382;28;20747;-73
2022/02/26 06:58:54;;;;;;;0.40;0.20;;;1.40;99.90;;;;;;4991187;28;20437;-72
2022/02/26 07:01:21;;;;;;;0.40;0.20;;;1.30;99.90;;;;;;4972974;28;20452;-73
2022/02/26 07:03:47;;;;;;;0.60;0.60;;;1.50;99.90;;;;;;4991302;28;20383;-72
2022/02/26 07:06:12;;;;;;;0.40;0.20;;;1.50;99.90;;;;;;4986295;28;20406;-73
2022/02/26 07:08:38;;;;;;;0.40;0.20;;;1.50;99.90;;;;;;4982027;28;20554;-72
2022/02/26 07:11:04;;;;;;;0.40;0.20;;;1.60;99.90;;;;;;4970175;28;20419;-72
2022/02/26 07:13:31;;;;;;;0.40;0.20;;;1.50;99.90;;;;;;4980602;28;20402;-72
2022/02/26 07:15:58;;;;;;;0.40;0.20;;;1.60;99.90;;;;;;4980299;28;20396;-72
2022/02/26 07:18:23;;;;;;;0.40;0.20;;;1.70;99.90;;;;;;4981337;28;20394;-72
2022/02/26 07:20:51;;;;;;;0.40;0.20;;;1.60;99.90;;;;;;4986009;28;20434;-73
2022/02/26 07:23:17;;;;;;;0.40;0.20;;;1.70;99.90;;;;;;4964951;28;20460;-72
2022/02/26 07:25:45;;;;;;;0.60;0.60;;;1.70;99.90;;;;;;4980500;28;20416;-73
2022/02/26 07:28:12;;;;;;;0.40;0.20;;;1.80;99.90;;;;;;4974839;28;20429;-72
2022/02/26 07:30:39;;;;;;;0.40;0.20;;;1.70;99.90;;;;;;4987361;28;20468;-73
2022/02/26 07:33:05;;;;;;;0.40;0.20;;;1.80;99.90;;;;;;4988539;28;20398;-72
2022/02/26 07:35:31;;;;;;;1.60;0.70;;;1.90;99.90;;;;;;4976889;28;20408;-72
2022/02/26 07:37:57;;;;;;;0.50;0.40;;;1.80;99.90;;;;;;4975606;28;20390;-73
2022/02/26 07:40:22;;;;;;;0.40;0.20;;;2.00;99.90;;;;;;4994229;28;20755;-73
2022/02/26 07:42:48;;;;;;;0.43;0.25;;;2.00;99.90;;;;;;4993366;28;20429;-73
2022/02/26 07:45:15;;;;;;;0.40;0.20;;;2.20;99.90;;;;;;4976111;28;20418;-72
2022/02/26 07:47:41;;;;;;;0.40;0.20;;;2.30;99.90;;;;;;4983161;28;20419;-72
2022/02/26 07:50:07;;;;;;;0.40;0.20;;;2.50;99.90;;;;;;4992087;28;20883;-72
2022/02/26 07:52:33;;;;;;;0.40;0.20;;;2.50;99.90;;;;;;4984969;28;20392;-72
2022/02/26 07:55:01;;;;;;;0.40;0.20;;;2.50;99.90;;;;;;4983877;28;20468;-72
2022/02/26 07:57:29;;;;;;;0.40;0.20;;;2.60;99.90;;;;;;4986175;28;20519;-72
2022/02/26 07:59:55;;;;;;;0.40;0.20;;;2.70;99.90;;;;;;4964403;28;20811;-73
2022/02/26 08:02:21;;;;;;;0.40;0.30;;;2.70;99.90;;;;;;4994100;28;20418;-72
2022/02/26 08:04:47;;;;;;;0.40;0.30;;;2.70;99.90;;;;;;4994079;28;20448;-73
2022/02/26 08:07:13;;;;;;;0.40;0.20;;;2.70;99.90;;;;;;4986629;28;20964;-73
2022/02/26 08:09:40;;;;;;;0.40;0.20;;;2.70;99.90;;;;;;4983581;28;20480;-73
2022/02/26 08:12:06;;;;;;;0.40;0.20;;;2.70;99.90;;;;;;4981831;28;20974;-72
2022/02/26 08:14:37;;;;;;;0.40;0.20;;;2.70;99.90;;;;;;4960614;28;20410;-71
2022/02/26 08:17:03;;;;;;;0.80;0.80;;;2.80;99.90;;;;;;4974627;28;20411;-72
2022/02/26 08:19:29;;;;;;;0.40;0.20;;;2.80;99.90;;;;;;4973907;28;20384;-72
2022/02/26 08:21:55;;;;;;;0.40;0.20;;;2.80;99.90;;;;;;4974742;28;20411;-72
2022/02/26 08:24:21;;;;;;;0.40;0.20;;;2.90;99.90;;;;;;4956206;28;20428;-72
2022/02/26 08:26:46;;;;;;;0.40;0.20;;;2.90;99.90;;;;;;4978533;28;20390;-72
2022/02/26 08:29:12;;;;;;;0.40;0.30;;;2.90;99.90;;;;;;4975141;28;20386;-73
2022/02/26 08:31:38;;;;;;;0.40;0.20;;;3.10;99.90;;;;;;4976126;28;20481;-72
2022/02/26 08:34:04;;;;;;;0.40;0.40;;;3.10;99.90;;;;;;4976200;28;20486;-72
2022/02/26 08:36:30;;;;;;;0.40;0.30;;;3.10;99.90;;;;;;4983980;28;20890;-73
2022/02/26 08:38:55;;;;;;;0.40;0.20;;;3.30;99.90;;;;;;4982544;28;20400;-73
2022/02/26 08:41:21;;;;;;;0.40;0.20;;;3.30;99.90;;;;;;4985758;28;20728;-74
2022/02/26 08:43:47;;;;;;;0.40;0.30;;;3.40;99.90;;;;;;4991646;28;20473;-72
2022/02/26 08:46:13;;;;;;;0.40;0.20;;;3.50;99.90;;;;;;4990129;28;20865;-72
2022/02/26 08:48:39;;;;;;;0.40;0.20;;;3.50;99.90;;;;;;4975296;28;20386;-72
2022/02/26 08:51:05;;;;;;;0.40;0.20;;;3.60;99.90;;;;;;4993375;28;20409;-72
2022/02/26 08:53:31;;;;;;;0.40;0.20;;;3.70;99.90;;;;;;4992521;28;20553;-72
2022/02/26 08:55:57;;;;;;;0.40;0.20;;;3.70;99.90;;;;;;4975804;28;20483;-72
2022/02/26 08:58:23;;;;;;;0.40;0.20;;;3.90;99.90;;;;;;4993402;28;20474;-72
2022/02/26 09:00:49;;;;;;;0.40;0.20;;;4.00;99.90;;;;;;4992724;28;20391;-72
2022/02/26 09:03:15;;;;;;;0.40;0.20;;;4.00;99.90;;;;;;4973432;28;20873;-73
2022/02/26 09:05:41;;;;;;;0.40;0.20;;;4.10;99.90;;;;;;4973004;28;20455;-74
2022/02/26 09:08:08;;;;;;;0.40;0.20;;;4.10;99.90;;;;;;4988410;28;20425;-73
2022/02/26 09:10:33;;;;;;;0.50;0.50;;;4.20;99.90;;;;;;4992921;28;20468;-74
2022/02/26 09:12:59;;;;;;;0.40;0.20;;;4.30;99.90;;;;;;4992437;28;20379;-74
2022/02/26 09:15:25;;;;;;;0.40;0.20;;;4.30;99.90;;;;;;4992691;28;20418;-74
2022/02/26 09:17:51;;;;;;;0.40;0.20;;;4.40;99.90;;;;;;4990719;28;20482;-74
2022/02/26 09:20:17;;;;;;;1.30;0.60;;;4.40;99.90;;;;;;4992397;28;20409;-74
2022/02/26 09:22:42;;;;;;;0.40;0.20;;;4.50;99.90;;;;;;4972869;28;20826;-73
2022/02/26 09:25:08;;;;;;;0.40;0.30;;;4.60;99.90;;;;;;4965826;28;20415;-73
2022/02/26 09:27:35;;;;;;;0.40;0.20;;;4.70;99.90;;;;;;4990948;28;20390;-73
2022/02/26 09:30:01;;;;;;;0.40;0.20;;;4.80;99.90;;;;;;4991464;28;20748;-74
2022/02/26 09:32:30;;;;;;;0.40;0.20;;;4.90;99.90;;;;;;4986936;28;20397;-73
2022/02/26 09:34:57;;;;;;;0.40;0.20;;;5.10;99.90;;;;;;4987353;28;20439;-73
2022/02/26 09:37:22;;;;;;;0.40;0.20;;;5.10;99.90;;;;;;4987307;28;20457;-73
2022/02/26 09:39:48;;;;;;;0.40;0.20;;;5.20;99.90;;;;;;4973889;28;20391;-73
2022/02/26 09:42:14;;;;;;;0.40;0.20;;;5.30;99.90;;;;;;4991009;28;20402;-73
2022/02/26 09:44:39;;;;;;;0.50;0.50;;;5.40;99.90;;;;;;4972806;28;20441;-73
2022/02/26 09:47:05;;;;;;;0.40;0.20;;;5.50;99.90;;;;;;4991610;28;20453;-73
2022/02/26 09:49:31;;;;;;;0.40;0.20;;;5.50;99.90;;;;;;4990441;28;20379;-73
2022/02/26 09:51:58;;;;;;;0.40;0.20;;;5.50;99.90;;;;;;4991124;28;20395;-73
2022/02/26 09:54:23;;;;;;;0.40;0.20;;;5.60;99.90;;;;;;4989983;28;20395;-73
2022/02/26 09:56:49;;;;;;;0.40;0.20;;;5.60;99.70;;;;;;4991150;28;20453;-73
2022/02/26 09:59:15;;;;;;;0.40;0.20;;;5.70;99.90;;;;;;4990753;28;20383;-74
2022/02/26 10:02:06;;;;;;;0.40;0.20;;;5.80;99.90;;;;;;4972291;28;20410;-74
2022/02/26 10:04:37;;;;;;;0.40;0.20;;;5.90;99.90;;;;;;4965133;28;20911;-74
2022/02/26 10:07:20;;;;;;;0.40;0.20;;;5.70;97.40;;;;;;4973089;28;20401;-74
2022/02/26 10:09:47;;;;;;;0.40;0.20;;;6.00;97.30;;;;;;4990328;28;20402;-74
2022/02/26 10:12:25;;;;;;;0.40;0.20;;;5.80;96.10;;;;;;4988705;28;20403;-74
2022/02/26 10:14:54;;;;;;;0.40;0.20;;;5.90;95.40;;;;;;4989021;28;20394;-74
2022/02/26 10:17:29;;;;;;;0.40;0.20;;;5.80;94.50;;;;;;4992123;28;20394;-74
2022/02/26 10:20:10;;;;;;;0.40;0.20;;;5.80;95.30;;;;;;4991154;28;20398;-74
2022/02/26 10:22:42;;;;;;;0.40;0.20;;;6.10;95.40;;;;;;4991142;28;20405;-75
2022/02/26 10:25:11;;;;;;;0.40;0.30;;;6.20;95.20;;;;;;4990089;28;20523;-74
2022/02/26 10:27:43;;;;;;;0.40;0.20;;;6.50;93.80;;;;;;4989032;28;20465;-74
2022/02/26 10:30:12;;;;;;;0.40;0.20;;;6.30;91.90;;;;;;4988691;28;20426;-74
2022/02/26 10:32:38;;;;;;;0.40;0.20;;;6.50;92.10;;;;;;4973566;28;20410;-74
2022/02/26 10:35:04;;;;;;;0.40;0.20;;;6.60;92.10;;;;;;4987623;28;20391;-73
2022/02/26 10:37:29;;;;;;;0.40;0.30;;;6.60;90.60;;;;;;4991404;28;20395;-73
2022/02/26 10:39:58;;;;;;;0.40;0.20;;;6.30;88.50;;;;;;4990767;28;20397;-74
2022/02/26 10:42:33;;;;;;;0.40;0.20;;;6.60;89.90;;;;;;4991541;28;20476;-73
2022/02/26 10:45:06;;;;;;;0.40;0.20;;;6.70;91.80;;;;;;4990531;28;20419;-73
2022/02/26 10:47:33;;;;;;;0.40;0.20;;;6.90;90.50;;;;;;4991535;28;20767;-73
2022/02/26 10:49:59;;;;;;;0.40;0.20;;;6.90;85.80;;;;;;4973152;28;20399;-73
2022/02/26 10:52:31;;;;;;;0.40;0.20;;;6.90;84.50;;;;;;4991442;28;20477;-73
2022/02/26 10:54:57;;;;;;;0.40;0.30;;;6.90;85.20;;;;;;4973189;28;20409;-73
2022/02/26 10:57:31;;;;;;;0.40;0.20;;;6.90;83.30;;;;;;4991604;28;20464;-73
2022/02/26 10:59:56;;;;;;;0.40;0.20;;;6.80;82.90;;;;;;4971945;28;20402;-74
2022/02/26 11:02:25;;;;;;;0.40;0.20;;;7.00;87.30;;;;;;4997318;28;20421;-73
2022/02/26 11:04:52;;;;;;;0.40;0.20;;;7.10;82.60;;;;;;4997361;28;20430;-73
2022/02/26 11:07:19;;;;;;;0.40;0.20;;;6.90;81.70;;;;;;4996077;28;20442;-74
2022/02/26 11:09:47;;;;;;;0.40;0.20;;;7.30;83.30;;;;;;4994975;28;20398;-73
2022/02/26 11:12:14;;;;;;;0.40;0.20;;;7.30;81.90;;;;;;4995178;28;20418;-74
2022/02/26 11:14:44;;;;;;;0.40;0.30;;;7.40;78.60;;;;;;4979252;28;20417;-74
2022/02/26 11:17:12;;;;;;;0.40;0.30;;;7.60;79.30;;;;;;4992955;28;20422;-74
2022/02/26 11:19:42;;;;;;;0.50;0.50;;;7.60;80.20;;;;;;4979801;28;20405;-73
2022/02/26 11:22:08;;;;;;;0.40;0.20;;;7.60;78.60;;;;;;4976474;28;20430;-73
2022/02/26 11:24:36;;;;;;;0.40;0.30;;;8.00;78.30;;;;;;4994431;28;20432;-74
2022/02/26 11:27:02;;;;;;;0.40;0.20;;;8.20;78.40;;;;;;4979716;28;20485;-74
2022/02/26 11:29:28;;;;;;;0.40;0.20;;;8.70;81.50;;;;;;4996361;28;20814;-75
2022/02/26 11:32:02;;;;;;;0.40;0.20;;;9.20;77.60;;;;;;4997191;28;20382;-73
2022/02/26 11:34:28;;;;;;;0.50;0.50;;;9.30;76.30;;;;;;4996732;28;20431;-73
2022/02/26 11:36:55;;;;;;;0.40;0.20;;;10.10;72.10;;;;;;4997559;28;20731;-73
2022/02/26 11:39:29;;;;;;;0.40;0.20;;;10.30;66.60;;;;;;4996830;28;20387;-74
2022/02/26 11:42:22;;;;;;;0.50;0.50;;;10.10;66.00;;;;;;4997449;28;20390;-74
2022/02/26 11:44:56;;;;;;;0.40;0.20;;;9.10;70.50;;;;;;4993850;28;20434;-74
2022/02/26 11:47:24;;;;;;;0.40;0.30;;;9.80;68.30;;;;;;4997326;28;20390;-74
2022/02/26 11:50:03;;;;;;;0.40;0.20;;;10.60;64.60;;;;;;4997299;28;20449;-74
2022/02/26 11:52:42;;;;;;;0.40;0.30;;;9.70;66.60;;;;;;4996465;28;20391;-74
2022/02/26 11:55:30;;;;;;;0.40;0.30;;;9.00;66.80;;;;;;4997529;28;20469;-74
2022/02/26 11:58:21;;;;;;;0.40;0.20;;;8.40;69.50;;;;;;4997315;28;20509;-74
2022/02/26 12:00:48;;;;;;;0.40;0.23;;;7.40;70.20;;;;;;4959515;28;20392;-74
2022/02/26 12:03:29;;;;;;;0.40;0.20;;;8.80;72.90;;;;;;4977648;28;20392;-74
2022/02/26 12:06:09;;;;;;;0.40;0.30;;;10.40;68.10;;;;;;4976779;28;20481;-74
2022/02/26 12:08:39;;;;;;;0.40;0.30;;;10.90;60.90;;;;;;4977992;28;20395;-74
2022/02/26 12:11:10;;;;;;;0.40;0.20;;;11.60;60.10;;;;;;4976722;28;20415;-74
2022/02/26 12:13:38;;;;;;;0.40;0.20;;;10.50;61.30;;;;;;4973335;28;20404;-74
2022/02/26 12:16:21;;;;;;;0.40;0.20;;;10.20;65.10;;;;;;4973733;28;20417;-74
2022/02/26 12:19:05;;;;;;;0.40;0.20;;;10.50;62.40;;;;;;4973982;28;20392;-73
2022/02/26 12:21:36;;;;;;;0.40;0.30;;;10.00;61.40;;;;;;4974008;28;20901;-73
2022/02/26 12:24:22;;;;;;;0.40;0.28;;;10.30;63.20;;;;;;4973531;28;20392;-73
2022/02/26 12:27:07;;;;;;;0.40;0.30;;;10.90;58.90;;;;;;4974222;28;20833;-74
2022/02/26 12:29:39;;;;;;;0.40;0.20;;;12.50;57.80;;;;;;4974505;28;20400;-73
2022/02/26 12:32:12;;;;;;;0.40;0.20;;;12.80;56.10;;;;;;4973609;28;20392;-73
2022/02/26 12:34:51;;;;;;;0.40;0.30;;;13.40;55.90;;;;;;4973965;28;20396;-74
2022/02/26 12:37:19;;;;;;;0.40;0.30;;;13.20;55.20;;;;;;4974058;28;20381;-74
2022/02/26 12:39:51;;;;;;;0.40;0.30;;;13.50;53.70;;;;;;4974212;28;20389;-74
2022/02/26 12:42:28;;;;;;;0.40;0.30;;;12.70;51.90;;;;;;4972158;28;20556;-73
2022/02/26 12:44:56;;;;;;;0.40;0.20;;;13.50;56.70;;;;;;4974399;28;20549;-75
2022/02/26 12:47:23;;;;;;;0.40;0.20;;;13.50;52.80;;;;;;4973238;28;20438;-74
2022/02/26 12:49:49;;;;;;;0.40;0.30;;;12.60;52.50;;;;;;4956563;28;20395;-73
2022/02/26 12:52:15;;;;;;;0.40;0.30;;;12.30;52.40;;;;;;4973089;28;20705;-74
2022/02/26 12:54:42;;;;;;;0.40;0.30;;;12.70;53.10;;;;;;4956435;28;20487;-73
2022/02/26 12:57:10;;;;;;;0.40;0.30;;;13.50;53.90;;;;;;4972971;28;20401;-73